Time;durP1;ratioP1;P1;durP2;ratioP2;P2;SDS_P1;SDS_P2;PMS_P1;PMS_P2;Temp;Humidity;BMP_temperature;BMP_pressure;BME280_temperature;BME280_humidity;BME280_pressure;Samples;Min_cycle;Max_cycle;Signal;HPM_P1;HPM_P2
2024/01/03 00:00:26;;;;;;;11.88;1.90;;;9.40;90.70;;;;;;4883127;29;20044;-81
2024/01/03 00:02:53;;;;;;;12.98;1.90;;;9.40;90.70;;;;;;4883445;29;20134;-81
2024/01/03 00:05:36;;;;;;;12.35;1.80;;;9.60;90.80;;;;;;4882935;29;20519;-81
2024/01/03 00:08:01;;;;;;;9.50;1.95;;;9.40;90.70;;;;;;4882273;29;20041;-81
2024/01/03 00:10:47;;;;;;;9.80;1.75;;;9.40;90.80;;;;;;4866751;29;20040;-81
2024/01/03 00:13:33;;;;;;;9.40;1.60;;;9.40;90.80;;;;;;4869678;29;20077;-81
2024/01/03 00:15:59;;;;;;;9.35;2.28;;;9.40;90.80;;;;;;4866144;29;20709;-81
2024/01/03 00:18:37;;;;;;;7.32;2.00;;;9.30;90.80;;;;;;4884241;29;20063;-81
2024/01/03 00:21:03;;;;;;;7.57;1.90;;;9.30;90.80;;;;;;4884078;29;20072;-81
2024/01/03 00:23:49;;;;;;;6.75;2.00;;;9.30;90.80;;;;;;4884713;29;20029;-81
2024/01/03 00:26:15;;;;;;;11.25;2.47;;;9.30;90.90;;;;;;4879755;29;20076;-82
2024/01/03 00:28:41;;;;;;;8.73;1.92;;;9.30;90.90;;;;;;4884237;29;20448;-81
2024/01/03 00:31:27;;;;;;;11.25;2.17;;;9.30;90.90;;;;;;4882745;29;20040;-81
2024/01/03 00:33:53;;;;;;;9.60;1.75;;;9.20;90.90;;;;;;4883680;29;20127;-81
2024/01/03 00:36:18;;;;;;;12.50;2.17;;;9.30;91.00;;;;;;4871825;29;20529;-81
2024/01/03 00:38:45;;;;;;;12.25;1.75;;;9.20;90.90;;;;;;4887693;29;20040;-81
2024/01/03 00:41:11;;;;;;;7.93;1.83;;;9.20;91.00;;;;;;4880898;29;20040;-81
2024/01/03 00:43:37;;;;;;;11.05;2.17;;;9.20;91.00;;;;;;4880188;29;20044;-80
2024/01/03 00:46:03;;;;;;;9.55;2.03;;;9.30;91.00;;;;;;4880597;29;20420;-81
2024/01/03 00:48:29;;;;;;;9.23;1.92;;;9.20;91.00;;;;;;4879384;29;20064;-82
2024/01/03 00:50:56;;;;;;;12.30;2.40;;;9.10;90.90;;;;;;4880142;29;20125;-81
2024/01/03 00:53:21;;;;;;;12.85;2.17;;;9.10;90.90;;;;;;4882429;29;20047;-81
2024/01/03 00:55:47;;;;;;;10.70;2.35;;;9.10;90.90;;;;;;4880225;29;20044;-81
2024/01/03 00:58:13;;;;;;;11.55;1.80;;;9.10;90.90;;;;;;4887071;29;20048;-81
2024/01/03 01:00:39;;;;;;;9.38;1.90;;;9.10;90.90;;;;;;4882327;29;20044;-81
2024/01/03 01:03:05;;;;;;;10.55;1.63;;;9.10;90.90;;;;;;4874767;29;20599;-81
2024/01/03 01:05:31;;;;;;;9.75;1.90;;;9.10;90.90;;;;;;4886993;29;20540;-81
2024/01/03 01:07:57;;;;;;;7.25;1.75;;;9.10;90.90;;;;;;4873794;29;20036;-81
2024/01/03 01:10:22;;;;;;;8.55;2.10;;;9.00;90.80;;;;;;4884516;29;20041;-81
2024/01/03 01:12:48;;;;;;;12.70;2.28;;;9.00;90.90;;;;;;4888427;29;20033;-81
2024/01/03 01:15:14;;;;;;;13.30;2.88;;;9.00;90.80;;;;;;4884340;29;20041;-82
2024/01/03 01:17:42;;;;;;;5.97;1.48;;;9.00;90.80;;;;;;4901787;29;20456;-81
2024/01/03 01:20:08;;;;;;;6.70;1.70;;;9.00;90.80;;;;;;4885105;29;20051;-81
2024/01/03 01:22:34;;;;;;;9.73;1.65;;;9.00;90.70;;;;;;4886475;29;20413;-81
2024/01/03 01:25:08;;;;;;;14.60;2.22;;;9.30;90.70;;;;;;4885468;29;20080;-81
2024/01/03 01:27:34;;;;;;;10.60;2.33;;;9.00;90.60;;;;;;4891353;29;20108;-81
2024/01/03 01:30:00;;;;;;;6.97;1.35;;;9.00;90.60;;;;;;4887879;29;20123;-81
2024/01/03 01:32:25;;;;;;;11.18;1.70;;;9.00;90.60;;;;;;4886138;29;20100;-81
2024/01/03 01:34:51;;;;;;;10.52;1.83;;;9.00;90.60;;;;;;4884304;29;20100;-81
2024/01/03 01:37:16;;;;;;;6.85;1.90;;;9.20;90.70;;;;;;4885785;29;20059;-81
2024/01/03 01:39:44;;;;;;;8.82;2.25;;;9.00;90.70;;;;;;4884535;29;20123;-81
2024/01/03 01:42:10;;;;;;;10.25;3.00;;;9.00;90.60;;;;;;4885166;29;20044;-81
2024/01/03 01:44:35;;;;;;;8.10;2.00;;;9.00;90.60;;;;;;4872123;29;20044;-81
2024/01/03 01:47:02;;;;;;;8.35;2.28;;;9.50;90.70;;;;;;4887168;29;20032;-81
2024/01/03 01:49:28;;;;;;;10.02;2.22;;;9.00;90.60;;;;;;4883407;29;20054;-82
2024/01/03 01:51:53;;;;;;;8.68;2.13;;;9.00;90.60;;;;;;4889744;29;20080;-81
2024/01/03 01:54:20;;;;;;;10.52;1.67;;;9.10;90.60;;;;;;4885920;29;20092;-81
2024/01/03 01:56:47;;;;;;;9.73;1.98;;;9.00;90.50;;;;;;4881069;29;20045;-81
2024/01/03 01:59:13;;;;;;;7.57;1.80;;;9.10;90.50;;;;;;4867759;29;20048;-81
2024/01/03 02:01:39;;;;;;;7.53;1.42;;;9.10;90.50;;;;;;4877996;29;20049;-81
2024/01/03 02:04:07;;;;;;;7.57;1.65;;;9.40;90.50;;;;;;4879550;29;20056;-81
2024/01/03 02:06:34;;;;;;;4.38;1.38;;;9.60;90.60;;;;;;4884894;29;20477;-81
2024/01/03 02:08:59;;;;;;;8.45;1.50;;;9.20;90.40;;;;;;4882106;29;20069;-81
2024/01/03 02:11:28;;;;;;;5.07;1.00;;;9.20;90.30;;;;;;4901708;29;20400;-81
2024/01/03 02:13:53;;;;;;;5.13;1.45;;;9.80;90.30;;;;;;4868404;29;20040;-81
2024/01/03 02:16:19;;;;;;;5.40;0.80;;;9.20;90.10;;;;;;4884286;29;20509;-81
2024/01/03 02:18:45;;;;;;;4.00;0.90;;;9.20;90.10;;;;;;4883682;29;20072;-81
2024/01/03 02:21:15;;;;;;;6.22;1.13;;;9.20;90.20;;;;;;4885910;29;20092;-81
2024/01/03 02:23:41;;;;;;;6.97;1.02;;;9.20;90.20;;;;;;4883511;29;20052;-81
2024/01/03 02:26:08;;;;;;;3.95;0.90;;;9.20;90.20;;;;;;4883500;29;20036;-81
2024/01/03 02:28:33;;;;;;;6.97;1.20;;;9.30;90.30;;;;;;4885044;29;20468;-81
2024/01/03 02:30:59;;;;;;;6.22;1.40;;;9.30;90.40;;;;;;4887462;29;20069;-81
2024/01/03 02:33:25;;;;;;;6.50;1.30;;;9.30;90.50;;;;;;4882095;29;20040;-81
2024/01/03 02:35:50;;;;;;;9.38;1.45;;;9.30;90.60;;;;;;4884206;29;20100;-80
2024/01/03 02:38:16;;;;;;;8.90;1.35;;;9.30;90.70;;;;;;4884603;29;20048;-81
2024/01/03 02:40:44;;;;;;;2.97;0.60;;;9.40;90.90;;;;;;4882493;29;20029;-81
2024/01/03 02:43:10;;;;;;;5.53;1.00;;;9.30;91.00;;;;;;4882269;29;20073;-81
2024/01/03 02:45:35;;;;;;;2.50;0.50;;;9.30;91.10;;;;;;4885323;29;20048;-81
2024/01/03 02:48:02;;;;;;;2.42;0.52;;;9.30;91.10;;;;;;4885661;29;20032;-81
2024/01/03 02:50:27;;;;;;;4.72;0.90;;;9.30;91.20;;;;;;4884124;29;20032;-81
2024/01/03 02:52:53;;;;;;;3.50;0.52;;;9.30;91.30;;;;;;4886801;29;20072;-81
2024/01/03 02:55:18;;;;;;;2.58;0.60;;;9.30;91.40;;;;;;4868290;29;20036;-82
2024/01/03 02:57:44;;;;;;;3.00;1.15;;;9.30;91.40;;;;;;4882599;29;20048;-81
2024/01/03 03:00:11;;;;;;;3.17;0.45;;;9.20;91.50;;;;;;4884546;29;20036;-81
2024/01/03 03:02:36;;;;;;;5.05;0.77;;;9.20;91.60;;;;;;4881542;29;20452;-81
2024/01/03 03:05:02;;;;;;;4.10;0.77;;;9.20;91.70;;;;;;4885409;29;20033;-81
2024/01/03 03:07:28;;;;;;;4.60;0.68;;;9.20;91.80;;;;;;4886737;29;20052;-81
2024/01/03 03:09:53;;;;;;;3.97;0.80;;;9.20;91.80;;;;;;4885277;29;20040;-81
2024/01/03 03:12:19;;;;;;;4.13;0.95;;;9.20;92.00;;;;;;4888492;29;20480;-81
2024/01/03 03:14:44;;;;;;;2.28;0.60;;;9.20;92.00;;;;;;4898387;29;20033;-81
2024/01/03 03:17:10;;;;;;;3.72;0.70;;;9.20;92.10;;;;;;4886992;29;20044;-81
2024/01/03 03:19:36;;;;;;;6.47;1.02;;;9.20;92.10;;;;;;4880674;29;20061;-81
2024/01/03 03:22:01;;;;;;;5.80;1.20;;;9.20;92.20;;;;;;4867311;29;20037;-81
2024/01/03 03:24:27;;;;;;;4.35;0.88;;;9.10;92.20;;;;;;4867433;29;20106;-81
2024/01/03 03:26:53;;;;;;;5.45;1.02;;;9.10;92.30;;;;;;4869048;29;20154;-81
2024/01/03 03:29:19;;;;;;;5.28;0.90;;;9.10;92.40;;;;;;4886077;29;20065;-82
2024/01/03 03:31:45;;;;;;;5.53;1.10;;;9.20;92.60;;;;;;4885471;29;20085;-82
2024/01/03 03:34:10;;;;;;;8.45;1.40;;;9.10;92.50;;;;;;4885724;29;20032;-82
2024/01/03 03:36:36;;;;;;;9.18;1.13;;;9.20;92.50;;;;;;4882080;29;20437;-82
2024/01/03 03:39:01;;;;;;;13.80;2.13;;;9.10;92.50;;;;;;4882801;29;20041;-81
2024/01/03 03:41:27;;;;;;;9.73;1.90;;;9.20;92.60;;;;;;4884916;29;20055;-81
2024/01/03 03:43:53;;;;;;;10.27;2.00;;;9.10;92.60;;;;;;4883431;29;20124;-81
2024/01/03 03:46:19;;;;;;;15.30;2.30;;;9.20;92.70;;;;;;4881878;29;20085;-81
2024/01/03 03:48:45;;;;;;;15.23;3.33;;;9.10;92.80;;;;;;4885642;29;20048;-81
2024/01/03 03:51:10;;;;;;;18.70;3.28;;;9.10;92.80;;;;;;4885956;29;20036;-81
2024/01/03 03:53:36;;;;;;;30.35;4.20;;;9.10;92.90;;;;;;4883269;29;20045;-82
2024/01/03 03:56:02;;;;;;;23.92;3.88;;;9.20;92.90;;;;;;4884003;29;20069;-82
2024/01/03 03:58:27;;;;;;;24.88;3.85;;;9.20;92.90;;;;;;4884124;29;20044;-82
2024/01/03 04:00:53;;;;;;;19.05;4.28;;;9.20;92.90;;;;;;4885365;29;20044;-82
2024/01/03 04:03:18;;;;;;;21.95;4.05;;;9.20;92.80;;;;;;4886140;29;20047;-82
2024/01/03 04:05:44;;;;;;;23.42;4.65;;;9.30;92.80;;;;;;4896849;29;20043;-82
2024/01/03 04:08:10;;;;;;;17.45;3.97;;;9.30;92.70;;;;;;4897845;29;20112;-82
2024/01/03 04:10:35;;;;;;;24.60;4.68;;;9.30;92.70;;;;;;4876026;29;20059;-82
2024/01/03 04:13:01;;;;;;;26.42;4.78;;;9.30;92.60;;;;;;4894056;29;20041;-81
2024/01/03 04:15:26;;;;;;;26.45;4.28;;;9.40;92.60;;;;;;4883876;29;20037;-82
2024/01/03 04:17:52;;;;;;;24.23;4.43;;;9.40;92.60;;;;;;4878407;29;20085;-82
2024/01/03 04:20:18;;;;;;;22.70;4.05;;;9.80;92.60;;;;;;4877105;29;20049;-81
2024/01/03 04:22:45;;;;;;;20.95;4.47;;;9.40;92.50;;;;;;4878593;29;20770;-81
2024/01/03 04:25:11;;;;;;;21.83;3.67;;;9.40;92.50;;;;;;4862902;29;20069;-82
2024/01/03 04:27:37;;;;;;;22.35;4.43;;;9.50;92.50;;;;;;4882087;29;20416;-82
2024/01/03 04:30:03;;;;;;;27.90;4.45;;;9.40;92.40;;;;;;4859480;29;20041;-81
2024/01/03 04:32:30;;;;;;;19.88;4.00;;;9.50;92.40;;;;;;4883804;29;20044;-82
2024/01/03 04:34:56;;;;;;;22.25;4.25;;;9.50;92.40;;;;;;4881431;29;20078;-82
2024/01/03 04:37:21;;;;;;;25.23;4.57;;;9.50;92.40;;;;;;4881764;29;20049;-81
2024/01/03 04:39:47;;;;;;;25.30;4.68;;;9.50;92.40;;;;;;4864773;29;20037;-82
2024/01/03 04:42:13;;;;;;;25.20;5.10;;;9.50;92.30;;;;;;4881832;29;20040;-82
2024/01/03 04:44:39;;;;;;;26.77;5.22;;;9.50;92.20;;;;;;4881021;29;20485;-82
2024/01/03 04:47:05;;;;;;;23.45;4.25;;;9.50;92.20;;;;;;4866939;29;20045;-81
2024/01/03 04:49:31;;;;;;;27.52;5.07;;;9.60;92.10;;;;;;4882802;29;20047;-81
2024/01/03 04:51:56;;;;;;;19.90;4.35;;;9.60;92.00;;;;;;4881574;29;20045;-81
2024/01/03 04:54:22;;;;;;;21.83;3.70;;;9.60;92.00;;;;;;4881764;29;20072;-82
2024/01/03 04:56:48;;;;;;;18.02;4.22;;;9.60;91.90;;;;;;4884413;29;20041;-81
2024/01/03 04:59:13;;;;;;;23.08;4.88;;;9.60;91.80;;;;;;4877183;29;20069;-81
2024/01/03 05:01:40;;;;;;;16.45;4.57;;;9.70;91.80;;;;;;4882977;29;20032;-82
2024/01/03 05:04:05;;;;;;;17.58;3.50;;;9.70;91.70;;;;;;4880348;29;20508;-82
2024/01/03 05:06:32;;;;;;;30.83;4.97;;;9.70;91.60;;;;;;4882382;29;20041;-81
2024/01/03 05:08:57;;;;;;;20.95;5.20;;;9.70;91.50;;;;;;4879103;29;20053;-81
2024/01/03 05:11:23;;;;;;;22.20;4.72;;;9.70;91.50;;;;;;4881241;29;20129;-81
2024/01/03 05:13:49;;;;;;;20.45;4.50;;;9.80;91.40;;;;;;4880312;29;20158;-81
2024/01/03 05:16:15;;;;;;;17.65;3.60;;;9.80;91.30;;;;;;4882487;29;20068;-81
2024/01/03 05:18:40;;;;;;;18.77;3.47;;;9.80;91.30;;;;;;4870429;29;20140;-82
2024/01/03 05:21:06;;;;;;;21.38;3.95;;;10.30;91.40;;;;;;4882228;29;20048;-81
2024/01/03 05:23:32;;;;;;;20.67;5.05;;;9.80;91.10;;;;;;4885147;29;20108;-81
2024/01/03 05:25:57;;;;;;;22.83;5.32;;;9.80;91.10;;;;;;4884140;29;20129;-81
2024/01/03 05:28:23;;;;;;;22.27;4.25;;;9.90;91.20;;;;;;4884613;29;20109;-81
2024/01/03 05:30:49;;;;;;;22.10;4.85;;;9.80;91.10;;;;;;4885258;29;20085;-82
2024/01/03 05:33:14;;;;;;;19.15;4.68;;;9.80;91.10;;;;;;4884944;29;22254;-81
2024/01/03 05:35:40;;;;;;;20.30;4.03;;;9.80;91.10;;;;;;4883898;29;20073;-82
2024/01/03 05:38:06;;;;;;;20.85;3.97;;;9.80;91.10;;;;;;4868754;29;20049;-81
2024/01/03 05:40:31;;;;;;;20.77;3.95;;;10.00;91.20;;;;;;4884870;29;20266;-81
2024/01/03 05:42:57;;;;;;;16.48;3.78;;;9.80;91.20;;;;;;4882991;29;20083;-82
2024/01/03 05:45:23;;;;;;;22.45;4.28;;;9.80;91.20;;;;;;4884195;29;20489;-82
2024/01/03 05:47:48;;;;;;;20.00;3.90;;;9.80;91.10;;;;;;4880734;29;20041;-82
2024/01/03 05:50:14;;;;;;;20.08;4.68;;;9.80;91.10;;;;;;4868062;29;20040;-82
2024/01/03 05:52:40;;;;;;;18.40;3.85;;;9.80;91.10;;;;;;4867617;29;20495;-82
2024/01/03 05:55:08;;;;;;;22.65;4.10;;;9.80;91.10;;;;;;4884663;29;20055;-82
2024/01/03 05:57:34;;;;;;;17.75;3.80;;;9.90;91.00;;;;;;4872180;29;20049;-82
2024/01/03 06:00:00;;;;;;;15.82;3.28;;;9.80;91.00;;;;;;4890438;29;20070;-82
2024/01/03 06:02:26;;;;;;;15.82;3.33;;;9.90;90.80;;;;;;4891152;29;20038;-86
2024/01/03 06:04:52;;;;;;;20.88;4.35;;;9.90;90.70;;;;;;4890099;29;20029;-81
2024/01/03 06:07:17;;;;;;;16.83;3.78;;;9.90;90.60;;;;;;4872343;29;20044;-82
2024/01/03 06:09:44;;;;;;;17.48;3.53;;;9.90;90.40;;;;;;4891276;29;20073;-81
2024/01/03 06:12:09;;;;;;;18.10;3.92;;;9.90;90.40;;;;;;4884826;29;20052;-81
2024/01/03 06:14:35;;;;;;;24.42;4.40;;;9.90;90.40;;;;;;4885713;29;20045;-81
2024/01/03 06:17:01;;;;;;;19.50;3.70;;;9.80;90.40;;;;;;4876678;29;20630;-81
2024/01/03 06:19:26;;;;;;;19.90;3.40;;;9.90;90.50;;;;;;4898179;29;20780;-81
2024/01/03 06:21:52;;;;;;;18.85;3.83;;;10.00;90.70;;;;;;4885156;29;20049;-80
2024/01/03 06:24:17;;;;;;;22.75;4.00;;;9.90;90.70;;;;;;4883940;29;20072;-81
2024/01/03 06:26:43;;;;;;;16.30;3.60;;;9.90;90.80;;;;;;4884827;29;20035;-81
2024/01/03 06:29:08;;;;;;;21.35;4.13;;;9.90;90.90;;;;;;4886979;29;20044;-81
2024/01/03 06:31:34;;;;;;;25.23;4.85;;;9.90;91.00;;;;;;4879700;29;20067;-81
2024/01/03 06:34:00;;;;;;;18.58;4.55;;;9.90;90.90;;;;;;4884961;29;20505;-80
2024/01/03 06:36:25;;;;;;;25.48;4.65;;;9.80;90.70;;;;;;4882031;29;20093;-81
2024/01/03 06:38:51;;;;;;;19.60;4.78;;;9.70;90.90;;;;;;4881659;29;20036;-81
2024/01/03 06:41:17;;;;;;;23.42;3.88;;;9.70;91.00;;;;;;4881178;29;20049;-81
2024/01/03 06:43:46;;;;;;;17.05;3.75;;;9.70;91.10;;;;;;4883003;29;20064;-81
2024/01/03 06:46:12;;;;;;;20.77;3.95;;;9.60;91.30;;;;;;4867454;29;20497;-81
2024/01/03 06:48:38;;;;;;;17.25;3.78;;;9.60;91.30;;;;;;4883993;29;20051;-81
2024/01/03 06:51:04;;;;;;;18.25;4.13;;;9.60;91.40;;;;;;4881830;29;20176;-81
2024/01/03 06:53:30;;;;;;;19.58;3.38;;;9.60;91.40;;;;;;4887171;29;20064;-81
2024/01/03 06:55:56;;;;;;;14.75;3.28;;;9.50;91.30;;;;;;4886387;29;20123;-81
2024/01/03 06:58:22;;;;;;;19.75;3.88;;;9.50;91.20;;;;;;4871845;29;20039;-81
2024/01/03 07:00:48;;;;;;;17.58;2.88;;;9.40;91.20;;;;;;4885709;29;20037;-81
2024/01/03 07:03:15;;;;;;;24.75;4.22;;;9.40;91.20;;;;;;4879833;29;20039;-80
2024/01/03 07:05:41;;;;;;;17.23;3.35;;;9.40;91.20;;;;;;4886183;29;20064;-80
2024/01/03 07:08:07;;;;;;;20.98;4.68;;;9.40;91.10;;;;;;4869097;29;20412;-80
2024/01/03 07:10:34;;;;;;;15.93;3.30;;;9.30;91.10;;;;;;4885882;29;20461;-80
2024/01/03 07:13:00;;;;;;;18.52;3.13;;;9.30;91.10;;;;;;4904496;29;20044;-81
2024/01/03 07:15:27;;;;;;;23.67;4.05;;;9.30;91.20;;;;;;4879848;29;20044;-81
2024/01/03 07:17:55;;;;;;;17.35;3.08;;;9.20;91.20;;;;;;4881824;29;20139;-81
2024/01/03 07:20:22;;;;;;;19.83;3.30;;;9.20;91.20;;;;;;4882053;29;20064;-81
2024/01/03 07:22:47;;;;;;;17.48;3.42;;;9.20;91.20;;;;;;4878919;29;20492;-81
2024/01/03 07:25:13;;;;;;;16.23;3.25;;;9.50;91.30;;;;;;4870156;29;20056;-81
2024/01/03 07:27:39;;;;;;;19.60;3.47;;;9.20;91.20;;;;;;4864367;29;20056;-81
2024/01/03 07:30:05;;;;;;;15.55;3.78;;;9.10;91.20;;;;;;4886301;29;20036;-80
2024/01/03 07:32:30;;;;;;;19.25;3.85;;;9.10;91.20;;;;;;4882503;29;20103;-80
2024/01/03 07:34:56;;;;;;;17.90;3.90;;;9.10;91.20;;;;;;4880895;29;20076;-80
2024/01/03 07:37:21;;;;;;;20.73;4.10;;;9.10;91.20;;;;;;4884726;29;20068;-81
2024/01/03 07:39:47;;;;;;;22.08;4.35;;;9.10;91.20;;;;;;4881831;29;20092;-80
2024/01/03 07:42:13;;;;;;;19.85;4.55;;;9.10;91.20;;;;;;4870242;29;20112;-81
2024/01/03 07:44:41;;;;;;;15.13;2.92;;;9.10;91.20;;;;;;4883915;29;20041;-81
2024/01/03 07:47:08;;;;;;;18.70;3.47;;;9.00;91.20;;;;;;4881350;29;20115;-81
2024/01/03 07:49:35;;;;;;;18.38;3.28;;;9.00;91.20;;;;;;4880525;29;20124;-81
2024/01/03 07:52:01;;;;;;;17.55;2.72;;;9.00;91.20;;;;;;4866531;29;20068;-81
2024/01/03 07:54:26;;;;;;;13.63;2.53;;;9.00;91.30;;;;;;4880553;29;20037;-81
2024/01/03 07:56:52;;;;;;;17.08;3.97;;;9.00;91.30;;;;;;4879325;29;20032;-81
2024/01/03 07:59:17;;;;;;;17.05;3.58;;;9.00;91.30;;;;;;4866913;29;20049;-81
2024/01/03 08:01:43;;;;;;;16.55;3.28;;;9.00;91.40;;;;;;4877630;29;20063;-81
2024/01/03 08:04:08;;;;;;;15.45;2.80;;;9.00;91.40;;;;;;4881283;29;20043;-80
2024/01/03 08:06:34;;;;;;;15.88;2.85;;;8.90;91.40;;;;;;4882480;29;20052;-80
2024/01/03 08:09:00;;;;;;;14.65;2.97;;;8.90;91.40;;;;;;4888307;29;20500;-81
2024/01/03 08:11:26;;;;;;;19.08;3.13;;;9.30;91.60;;;;;;4880130;29;20044;-81
2024/01/03 08:13:51;;;;;;;19.83;3.03;;;8.90;91.50;;;;;;4890431;29;20041;-81
2024/01/03 08:16:17;;;;;;;13.57;2.55;;;8.90;91.50;;;;;;4885261;29;20041;-80
2024/01/03 08:18:44;;;;;;;10.45;2.47;;;8.90;91.50;;;;;;4885431;29;20111;-82
2024/01/03 08:21:10;;;;;;;8.77;2.25;;;9.50;91.60;;;;;;4884698;29;20051;-82
2024/01/03 08:23:36;;;;;;;10.40;3.35;;;8.90;91.40;;;;;;4887321;29;20080;-81
2024/01/03 08:26:12;;;;;;;13.77;2.45;;;8.90;91.40;;;;;;4885252;29;20044;-82
2024/01/03 08:28:40;;;;;;;12.48;2.58;;;8.90;91.30;;;;;;4873387;29;20055;-82
2024/01/03 08:31:06;;;;;;;15.25;2.75;;;8.90;91.40;;;;;;4889023;29;20075;-82
2024/01/03 08:33:36;;;;;;;15.40;2.30;;;8.80;91.30;;;;;;4884533;29;20041;-82
2024/01/03 08:36:02;;;;;;;12.55;2.25;;;8.80;91.30;;;;;;4871100;29;20372;-82
2024/01/03 08:38:28;;;;;;;10.98;2.13;;;8.80;91.40;;;;;;4874454;29;20037;-84
2024/01/03 08:40:53;;;;;;;14.95;1.70;;;8.80;91.40;;;;;;4888568;29;20492;-83
2024/01/03 08:43:19;;;;;;;12.45;2.40;;;9.40;91.60;;;;;;4885635;29;20036;-85
2024/01/03 08:45:45;;;;;;;14.25;2.80;;;8.80;91.40;;;;;;4887925;29;20060;-83
2024/01/03 08:48:10;;;;;;;18.45;3.38;;;8.80;91.50;;;;;;4884702;29;20069;-81
2024/01/03 08:50:36;;;;;;;20.85;3.75;;;8.80;91.60;;;;;;4889712;29;20048;-82
2024/01/03 08:53:01;;;;;;;16.38;2.67;;;8.90;91.60;;;;;;4889359;29;20124;-81
2024/01/03 08:55:27;;;;;;;14.93;2.63;;;8.90;91.70;;;;;;4901430;29;20059;-81
2024/01/03 08:57:56;;;;;;;12.30;2.65;;;9.00;91.70;;;;;;4869153;29;20041;-81
2024/01/03 09:00:24;;;;;;;14.18;2.92;;;9.00;91.70;;;;;;4905024;29;20431;-81
2024/01/03 09:02:50;;;;;;;16.00;3.38;;;9.10;91.70;;;;;;4872432;29;20033;-81
2024/01/03 09:05:16;;;;;;;19.73;2.95;;;9.10;91.70;;;;;;4873293;29;20078;-81
2024/01/03 09:07:44;;;;;;;12.18;2.50;;;9.10;91.70;;;;;;4902220;29;20048;-81
2024/01/03 09:10:12;;;;;;;15.15;3.03;;;9.20;91.80;;;;;;4886209;29;20045;-82
2024/01/03 09:12:38;;;;;;;17.63;3.28;;;9.20;91.80;;;;;;4869945;29;20056;-81
2024/01/03 09:15:04;;;;;;;15.38;2.58;;;9.30;91.80;;;;;;4883147;29;20130;-81
2024/01/03 09:17:29;;;;;;;14.40;3.30;;;9.30;91.80;;;;;;4887580;29;20092;-81
2024/01/03 09:19:55;;;;;;;18.75;3.50;;;9.40;91.80;;;;;;4901049;29;20053;-81
2024/01/03 09:22:20;;;;;;;13.27;2.65;;;9.40;91.70;;;;;;4895485;29;20041;-81
2024/01/03 09:24:46;;;;;;;11.82;2.53;;;9.40;91.60;;;;;;4883901;29;20060;-81
2024/01/03 09:27:11;;;;;;;15.98;3.22;;;9.50;91.50;;;;;;4901817;29;20124;-81
2024/01/03 09:29:37;;;;;;;15.93;3.55;;;9.60;91.40;;;;;;4886506;29;20032;-81
2024/01/03 09:32:03;;;;;;;20.55;3.63;;;9.60;91.40;;;;;;4885247;29;20496;-81
2024/01/03 09:34:29;;;;;;;14.45;2.50;;;9.60;91.30;;;;;;4884420;29;20044;-81
2024/01/03 09:36:54;;;;;;;15.13;2.78;;;9.60;91.30;;;;;;4883373;29;20423;-80
2024/01/03 09:39:20;;;;;;;18.00;2.83;;;9.70;91.30;;;;;;4881888;29;20041;-81
2024/01/03 09:41:47;;;;;;;16.70;3.40;;;9.70;91.30;;;;;;4899579;29;20560;-81
2024/01/03 09:44:13;;;;;;;14.07;2.92;;;9.80;91.30;;;;;;4884086;29;20116;-81
2024/01/03 09:46:39;;;;;;;14.27;3.00;;;9.90;91.30;;;;;;4884872;29;20044;-81
2024/01/03 09:49:05;;;;;;;14.60;3.17;;;9.90;91.20;;;;;;4880371;29;20044;-81
2024/01/03 09:51:31;;;;;;;15.88;3.03;;;10.00;91.20;;;;;;4883727;29;20036;-82
2024/01/03 09:53:57;;;;;;;13.85;2.80;;;10.30;91.10;;;;;;4886094;29;20052;-81
2024/01/03 09:56:23;;;;;;;14.23;2.55;;;10.10;90.80;;;;;;4887030;29;20404;-81
2024/01/03 09:58:49;;;;;;;16.63;3.10;;;10.20;90.70;;;;;;4886375;29;20111;-81
2024/01/03 10:01:14;;;;;;;15.90;4.82;;;10.20;90.40;;;;;;4884440;29;20033;-81
2024/01/03 10:03:40;;;;;;;15.23;3.22;;;10.20;90.20;;;;;;4884023;29;20115;-81
2024/01/03 10:06:13;;;;;;;19.08;3.33;;;10.20;90.00;;;;;;4883508;29;20048;-81
2024/01/03 10:08:39;;;;;;;16.65;3.40;;;10.20;89.80;;;;;;4882845;29;20060;-81
2024/01/03 10:11:20;;;;;;;14.30;2.92;;;10.30;89.90;;;;;;4865573;29;20049;-81
2024/01/03 10:13:52;;;;;;;14.98;3.40;;;10.20;89.50;;;;;;4884323;29;20092;-81
2024/01/03 10:16:27;;;;;;;19.45;2.88;;;10.20;89.80;;;;;;4880926;29;20040;-81
2024/01/03 10:19:12;;;;;;;16.20;2.83;;;10.20;89.60;;;;;;4880364;29;20412;-81
2024/01/03 10:21:45;;;;;;;12.20;3.22;;;10.20;89.40;;;;;;4883961;29;20047;-82
2024/01/03 10:24:11;;;;;;;17.83;3.35;;;10.20;89.60;;;;;;4886783;29;20041;-80
2024/01/03 10:26:37;;;;;;;17.90;3.03;;;10.20;89.50;;;;;;4882589;29;20044;-81
2024/01/03 10:29:16;;;;;;;16.58;3.70;;;10.20;89.60;;;;;;4881899;29;20041;-81
2024/01/03 10:31:43;;;;;;;12.55;2.65;;;10.20;89.60;;;;;;4880074;29;20091;-81
2024/01/03 10:34:17;;;;;;;17.90;3.08;;;10.10;89.70;;;;;;4882982;29;20039;-81
2024/01/03 10:36:46;;;;;;;24.42;4.47;;;10.20;89.80;;;;;;4885554;29;20069;-81
2024/01/03 10:39:17;;;;;;;13.85;2.47;;;10.10;89.80;;;;;;4884816;29;20048;-81
2024/01/03 10:41:45;;;;;;;18.05;3.10;;;10.10;89.90;;;;;;4882660;29;20041;-81
2024/01/03 10:44:18;;;;;;;20.15;3.58;;;10.10;90.00;;;;;;4884995;29;20511;-81
2024/01/03 10:46:44;;;;;;;24.52;4.18;;;10.10;90.10;;;;;;4881958;29;20092;-81
2024/01/03 10:49:10;;;;;;;14.80;3.63;;;10.10;90.10;;;;;;4868242;29;20508;-81
2024/01/03 10:51:40;;;;;;;18.55;3.35;;;10.20;90.40;;;;;;4884704;29;20044;-81
2024/01/03 10:54:14;;;;;;;22.33;3.90;;;10.20;90.30;;;;;;4881051;29;20079;-81
2024/01/03 10:56:46;;;;;;;18.90;4.18;;;10.20;90.40;;;;;;4883279;29;20564;-81
2024/01/03 10:59:12;;;;;;;16.65;3.70;;;10.20;90.40;;;;;;4899843;29;20037;-81
2024/01/03 11:01:49;;;;;;;26.95;4.32;;;10.20;90.40;;;;;;4880573;29;20041;-81
2024/01/03 11:04:30;;;;;;;20.45;5.20;;;10.20;90.40;;;;;;4883626;29;20048;-81
2024/01/03 11:07:09;;;;;;;23.60;4.38;;;10.20;90.60;;;;;;4883211;29;20052;-82
2024/01/03 11:09:35;;;;;;;25.45;4.80;;;10.30;90.50;;;;;;4878930;29;20044;-82
2024/01/03 11:12:09;;;;;;;22.85;4.97;;;10.30;90.50;;;;;;4892126;29;20040;-81
2024/01/03 11:14:34;;;;;;;24.27;4.97;;;10.30;90.60;;;;;;4884330;29;20044;-82
2024/01/03 11:17:01;;;;;;;23.20;3.90;;;10.60;90.70;;;;;;4891590;29;20500;-82
2024/01/03 11:19:31;;;;;;;24.08;5.75;;;10.30;90.70;;;;;;4888427;29;20048;-81
2024/01/03 11:21:59;;;;;;;27.80;4.93;;;10.30;90.80;;;;;;4888340;29;20086;-81
2024/01/03 11:24:28;;;;;;;29.48;5.40;;;10.30;90.80;;;;;;4893610;29;20037;-81
2024/01/03 11:26:56;;;;;;;20.80;4.95;;;10.40;90.90;;;;;;4897528;29;20047;-81
2024/01/03 11:29:41;;;;;;;21.92;5.05;;;10.60;90.90;;;;;;4898354;29;20040;-82
2024/01/03 11:32:28;;;;;;;21.00;4.90;;;10.40;90.90;;;;;;4894065;29;20037;-81
2024/01/03 11:34:53;;;;;;;25.85;5.25;;;10.40;91.00;;;;;;4894390;29;20037;-81
2024/01/03 11:37:19;;;;;;;20.88;4.25;;;10.40;91.00;;;;;;4889169;29;20065;-82
2024/01/03 11:39:52;;;;;;;18.17;4.07;;;10.40;91.00;;;;;;4893964;29;20073;-82
2024/01/03 11:42:28;;;;;;;20.42;3.67;;;10.40;91.00;;;;;;4898130;29;20040;-82
2024/01/03 11:45:04;;;;;;;18.70;3.55;;;10.60;91.10;;;;;;4898012;29;20093;-81
2024/01/03 11:47:31;;;;;;;18.80;4.13;;;10.40;91.10;;;;;;4886424;29;20049;-82
2024/01/03 11:49:57;;;;;;;21.33;4.03;;;10.50;91.20;;;;;;4860935;29;20505;-82
2024/01/03 11:52:24;;;;;;;16.08;3.72;;;10.50;91.20;;;;;;4885813;29;20519;-82
2024/01/03 11:54:50;;;;;;;11.63;2.35;;;10.50;91.20;;;;;;4885784;29;20036;-82
2024/01/03 11:57:20;;;;;;;18.45;3.63;;;10.50;91.30;;;;;;4899440;29;20040;-82
2024/01/03 11:59:45;;;;;;;17.92;3.60;;;10.50;91.30;;;;;;4883803;29;20038;-82
2024/01/03 12:02:14;;;;;;;15.10;3.25;;;10.50;91.30;;;;;;4867821;29;20085;-82
2024/01/03 12:04:41;;;;;;;11.60;2.38;;;10.50;91.40;;;;;;4900173;29;20044;-82
2024/01/03 12:07:07;;;;;;;16.38;3.72;;;10.50;91.30;;;;;;4899166;29;20064;-82
2024/01/03 12:09:33;;;;;;;10.45;2.30;;;10.50;91.30;;;;;;4883906;29;20488;-82
2024/01/03 12:11:59;;;;;;;14.52;3.33;;;10.80;91.40;;;;;;4882658;29;20048;-82
2024/01/03 12:14:25;;;;;;;12.13;2.60;;;10.50;91.30;;;;;;4880017;29;20044;-82
2024/01/03 12:16:55;;;;;;;16.88;2.85;;;10.50;91.20;;;;;;4881455;29;20041;-82
2024/01/03 12:19:33;;;;;;;11.50;2.08;;;10.50;91.20;;;;;;4878925;29;20702;-82
2024/01/03 12:22:01;;;;;;;12.23;3.30;;;10.60;91.20;;;;;;4876394;29;20048;-82
2024/01/03 12:24:43;;;;;;;9.13;2.40;;;10.50;91.20;;;;;;4876635;29;20052;-82
2024/01/03 12:27:10;;;;;;;10.10;2.20;;;10.50;91.20;;;;;;4878570;29;20088;-82
2024/01/03 12:29:36;;;;;;;12.23;1.95;;;10.50;91.20;;;;;;4881107;29;20473;-82
2024/01/03 12:32:16;;;;;;;10.35;2.78;;;10.50;91.10;;;;;;4864609;29;20036;-82
2024/01/03 12:34:43;;;;;;;10.32;2.35;;;10.50;91.00;;;;;;4862756;29;20037;-82
2024/01/03 12:37:08;;;;;;;14.80;3.10;;;10.70;91.20;;;;;;4879915;29;20060;-82
2024/01/03 12:39:35;;;;;;;9.35;2.88;;;10.50;90.90;;;;;;4880412;29;20050;-83
2024/01/03 12:42:04;;;;;;;14.52;2.22;;;10.50;90.90;;;;;;4849350;29;20494;-82
2024/01/03 12:44:31;;;;;;;8.18;2.17;;;10.50;90.90;;;;;;4877489;29;20038;-82
2024/01/03 12:46:57;;;;;;;11.80;1.92;;;10.50;90.80;;;;;;4877344;29;20041;-82